sensor_id;sensor_type;location;lat;lon;timestamp;P1;durP1;ratioP1;P2;durP2;ratioP2
65328;SDS011;51941;52.210;5.158;2023-02-24T00:01:58;8.45;;;2.30;;
65328;SDS011;51941;52.210;5.158;2023-02-24T00:04:30;7.78;;;2.33;;
65328;SDS011;51941;52.210;5.158;2023-02-24T00:06:58;9.25;;;3.78;;
65328;SDS011;51941;52.210;5.158;2023-02-24T00:09:27;11.93;;;4.07;;
65328;SDS011;51941;52.210;5.158;2023-02-24T00:11:55;14.88;;;5.20;;
65328;SDS011;51941;52.210;5.158;2023-02-24T00:14:23;11.57;;;4.32;;
65328;SDS011;51941;52.210;5.158;2023-02-24T00:16:52;13.00;;;4.70;;
65328;SDS011;51941;52.210;5.158;2023-02-24T00:19:20;13.30;;;4.78;;
65328;SDS011;51941;52.210;5.158;2023-02-24T00:21:50;8.50;;;4.40;;
65328;SDS011;51941;52.210;5.158;2023-02-24T00:26:45;8.25;;;3.97;;
65328;SDS011;51941;52.210;5.158;2023-02-24T00:29:21;14.85;;;3.92;;
65328;SDS011;51941;52.210;5.158;2023-02-24T00:31:51;7.93;;;2.90;;
65328;SDS011;51941;52.210;5.158;2023-02-24T00:34:24;7.45;;;3.10;;
65328;SDS011;51941;52.210;5.158;2023-02-24T00:36:52;7.53;;;3.00;;
65328;SDS011;51941;52.210;5.158;2023-02-24T00:39:19;8.57;;;3.03;;
65328;SDS011;51941;52.210;5.158;2023-02-24T00:41:55;10.18;;;2.78;;
65328;SDS011;51941;52.210;5.158;2023-02-24T00:44:28;8.07;;;2.72;;
65328;SDS011;51941;52.210;5.158;2023-02-24T00:46:58;10.55;;;2.80;;
65328;SDS011;51941;52.210;5.158;2023-02-24T00:49:26;9.05;;;3.22;;
65328;SDS011;51941;52.210;5.158;2023-02-24T00:51:54;8.10;;;2.72;;
65328;SDS011;51941;52.210;5.158;2023-02-24T00:54:21;9.02;;;2.85;;
65328;SDS011;51941;52.210;5.158;2023-02-24T00:56:52;5.75;;;2.38;;
65328;SDS011;51941;52.210;5.158;2023-02-24T00:59:20;5.95;;;2.30;;
65328;SDS011;51941;52.210;5.158;2023-02-24T01:01:48;7.78;;;2.90;;
65328;SDS011;51941;52.210;5.158;2023-02-24T01:04:15;10.73;;;2.65;;
65328;SDS011;51941;52.210;5.158;2023-02-24T01:06:44;8.48;;;2.75;;
65328;SDS011;51941;52.210;5.158;2023-02-24T01:09:14;7.27;;;2.33;;
65328;SDS011;51941;52.210;5.158;2023-02-24T01:11:44;10.73;;;2.50;;
65328;SDS011;51941;52.210;5.158;2023-02-24T01:14:42;8.07;;;2.53;;
65328;SDS011;51941;52.210;5.158;2023-02-24T01:17:12;9.00;;;2.67;;
65328;SDS011;51941;52.210;5.158;2023-02-24T01:19:41;5.53;;;1.95;;
65328;SDS011;51941;52.210;5.158;2023-02-24T01:22:12;8.80;;;2.30;;
65328;SDS011;51941;52.210;5.158;2023-02-24T01:24:42;6.05;;;2.05;;
65328;SDS011;51941;52.210;5.158;2023-02-24T01:27:09;8.65;;;2.38;;
65328;SDS011;51941;52.210;5.158;2023-02-24T01:29:38;7.38;;;2.05;;
65328;SDS011;51941;52.210;5.158;2023-02-24T01:32:07;9.57;;;2.35;;
65328;SDS011;51941;52.210;5.158;2023-02-24T01:34:39;6.35;;;1.67;;
65328;SDS011;51941;52.210;5.158;2023-02-24T01:37:06;10.35;;;2.15;;
65328;SDS011;51941;52.210;5.158;2023-02-24T01:39:33;12.43;;;3.03;;
65328;SDS011;51941;52.210;5.158;2023-02-24T01:42:03;4.90;;;2.13;;
65328;SDS011;51941;52.210;5.158;2023-02-24T01:47:30;7.15;;;2.05;;
65328;SDS011;51941;52.210;5.158;2023-02-24T01:49:57;7.93;;;1.92;;
65328;SDS011;51941;52.210;5.158;2023-02-24T01:52:26;5.60;;;1.70;;
65328;SDS011;51941;52.210;5.158;2023-02-24T01:54:56;10.75;;;2.63;;
65328;SDS011;51941;52.210;5.158;2023-02-24T01:57:29;5.88;;;2.17;;
65328;SDS011;51941;52.210;5.158;2023-02-24T01:59:59;6.78;;;2.25;;
65328;SDS011;51941;52.210;5.158;2023-02-24T02:02:40;10.00;;;1.90;;
65328;SDS011;51941;52.210;5.158;2023-02-24T02:05:11;6.65;;;2.00;;
65328;SDS011;51941;52.210;5.158;2023-02-24T02:07:39;8.73;;;1.80;;
65328;SDS011;51941;52.210;5.158;2023-02-24T02:10:08;8.68;;;1.98;;
65328;SDS011;51941;52.210;5.158;2023-02-24T02:15:08;5.80;;;1.80;;
65328;SDS011;51941;52.210;5.158;2023-02-24T02:17:38;5.85;;;1.77;;
65328;SDS011;51941;52.210;5.158;2023-02-24T02:23:33;4.43;;;1.60;;
65328;SDS011;51941;52.210;5.158;2023-02-24T02:35:33;4.88;;;1.83;;
65328;SDS011;51941;52.210;5.158;2023-02-24T02:38:06;7.80;;;1.95;;
65328;SDS011;51941;52.210;5.158;2023-02-24T02:40:41;6.90;;;1.80;;
65328;SDS011;51941;52.210;5.158;2023-02-24T02:43:14;5.30;;;1.63;;
65328;SDS011;51941;52.210;5.158;2023-02-24T02:45:51;8.23;;;2.10;;
65328;SDS011;51941;52.210;5.158;2023-02-24T02:48:23;3.90;;;1.80;;
65328;SDS011;51941;52.210;5.158;2023-02-24T02:51:01;6.30;;;1.80;;
65328;SDS011;51941;52.210;5.158;2023-02-24T02:53:31;6.70;;;1.60;;
65328;SDS011;51941;52.210;5.158;2023-02-24T02:56:05;6.93;;;2.00;;
65328;SDS011;51941;52.210;5.158;2023-02-24T02:58:41;6.60;;;2.05;;
65328;SDS011;51941;52.210;5.158;2023-02-24T03:01:16;5.72;;;1.83;;
65328;SDS011;51941;52.210;5.158;2023-02-24T03:03:45;7.38;;;1.48;;
65328;SDS011;51941;52.210;5.158;2023-02-24T03:06:19;5.95;;;1.40;;
65328;SDS011;51941;52.210;5.158;2023-02-24T03:08:51;8.73;;;2.17;;
65328;SDS011;51941;52.210;5.158;2023-02-24T03:11:23;4.18;;;1.30;;
65328;SDS011;51941;52.210;5.158;2023-02-24T03:13:50;4.47;;;1.30;;
65328;SDS011;51941;52.210;5.158;2023-02-24T03:16:22;6.45;;;1.65;;
65328;SDS011;51941;52.210;5.158;2023-02-24T03:18:52;5.13;;;1.17;;
65328;SDS011;51941;52.210;5.158;2023-02-24T03:21:27;5.80;;;1.23;;
65328;SDS011;51941;52.210;5.158;2023-02-24T03:23:58;3.42;;;1.10;;
65328;SDS011;51941;52.210;5.158;2023-02-24T03:26:30;3.53;;;0.70;;
65328;SDS011;51941;52.210;5.158;2023-02-24T03:29:07;4.40;;;0.95;;
65328;SDS011;51941;52.210;5.158;2023-02-24T03:31:38;2.58;;;0.77;;
65328;SDS011;51941;52.210;5.158;2023-02-24T03:34:11;5.07;;;0.98;;
65328;SDS011;51941;52.210;5.158;2023-02-24T03:36:45;2.65;;;0.75;;
65328;SDS011;51941;52.210;5.158;2023-02-24T03:39:14;2.58;;;0.60;;
65328;SDS011;51941;52.210;5.158;2023-02-24T03:41:52;4.90;;;0.90;;
65328;SDS011;51941;52.210;5.158;2023-02-24T03:44:25;2.15;;;0.60;;
65328;SDS011;51941;52.210;5.158;2023-02-24T03:46:53;2.20;;;0.60;;
65328;SDS011;51941;52.210;5.158;2023-02-24T03:49:21;2.80;;;0.60;;
65328;SDS011;51941;52.210;5.158;2023-02-24T03:51:53;3.38;;;0.65;;
65328;SDS011;51941;52.210;5.158;2023-02-24T03:54:40;1.13;;;0.47;;
65328;SDS011;51941;52.210;5.158;2023-02-24T03:57:21;1.52;;;0.47;;
65328;SDS011;51941;52.210;5.158;2023-02-24T04:00:02;3.78;;;0.93;;
65328;SDS011;51941;52.210;5.158;2023-02-24T04:02:54;5.07;;;0.90;;
65328;SDS011;51941;52.210;5.158;2023-02-24T04:05:27;5.68;;;1.00;;
65328;SDS011;51941;52.210;5.158;2023-02-24T04:08:02;4.65;;;1.30;;
65328;SDS011;51941;52.210;5.158;2023-02-24T04:10:34;3.22;;;0.85;;
65328;SDS011;51941;52.210;5.158;2023-02-24T04:13:10;3.85;;;1.00;;
65328;SDS011;51941;52.210;5.158;2023-02-24T04:15:47;4.20;;;0.80;;
65328;SDS011;51941;52.210;5.158;2023-02-24T04:18:22;5.22;;;1.20;;
65328;SDS011;51941;52.210;5.158;2023-02-24T04:20:53;5.10;;;1.00;;
65328;SDS011;51941;52.210;5.158;2023-02-24T04:23:27;4.43;;;1.08;;
65328;SDS011;51941;52.210;5.158;2023-02-24T04:25:57;3.40;;;1.05;;
65328;SDS011;51941;52.210;5.158;2023-02-24T04:28:27;5.38;;;0.80;;
65328;SDS011;51941;52.210;5.158;2023-02-24T04:30:58;2.63;;;0.80;;
65328;SDS011;51941;52.210;5.158;2023-02-24T04:33:31;3.55;;;0.75;;
65328;SDS011;51941;52.210;5.158;2023-02-24T04:35:59;3.70;;;0.52;;
65328;SDS011;51941;52.210;5.158;2023-02-24T04:38:29;2.50;;;0.77;;
65328;SDS011;51941;52.210;5.158;2023-02-24T04:40:56;3.88;;;0.70;;
65328;SDS011;51941;52.210;5.158;2023-02-24T04:43:23;4.07;;;0.80;;
65328;SDS011;51941;52.210;5.158;2023-02-24T04:45:49;5.15;;;0.93;;
65328;SDS011;51941;52.210;5.158;2023-02-24T04:48:16;2.42;;;0.93;;
65328;SDS011;51941;52.210;5.158;2023-02-24T04:50:44;6.63;;;1.02;;
65328;SDS011;51941;52.210;5.158;2023-02-24T04:53:14;6.93;;;0.90;;
65328;SDS011;51941;52.210;5.158;2023-02-24T04:55:44;2.67;;;0.60;;
65328;SDS011;51941;52.210;5.158;2023-02-24T04:58:13;2.80;;;0.63;;
65328;SDS011;51941;52.210;5.158;2023-02-24T05:00:44;2.20;;;0.40;;
65328;SDS011;51941;52.210;5.158;2023-02-24T05:03:13;7.17;;;1.07;;
65328;SDS011;51941;52.210;5.158;2023-02-24T05:05:46;2.08;;;0.57;;
65328;SDS011;51941;52.210;5.158;2023-02-24T05:08:16;3.22;;;0.55;;
65328;SDS011;51941;52.210;5.158;2023-02-24T05:10:45;8.70;;;1.00;;
65328;SDS011;51941;52.210;5.158;2023-02-24T05:13:13;3.63;;;0.70;;
65328;SDS011;51941;52.210;5.158;2023-02-24T05:15:43;2.58;;;0.82;;
65328;SDS011;51941;52.210;5.158;2023-02-24T05:18:12;2.45;;;0.60;;
65328;SDS011;51941;52.210;5.158;2023-02-24T05:20:43;3.38;;;0.60;;
65328;SDS011;51941;52.210;5.158;2023-02-24T05:23:30;2.63;;;0.55;;
65328;SDS011;51941;52.210;5.158;2023-02-24T05:26:00;3.65;;;0.60;;
65328;SDS011;51941;52.210;5.158;2023-02-24T05:28:32;1.67;;;0.40;;
65328;SDS011;51941;52.210;5.158;2023-02-24T05:31:02;4.93;;;0.60;;
65328;SDS011;51941;52.210;5.158;2023-02-24T05:33:32;1.42;;;0.40;;
65328;SDS011;51941;52.210;5.158;2023-02-24T05:36:01;6.07;;;0.70;;
65328;SDS011;51941;52.210;5.158;2023-02-24T05:38:28;6.93;;;0.70;;
65328;SDS011;51941;52.210;5.158;2023-02-24T05:41:02;7.05;;;0.65;;
65328;SDS011;51941;52.210;5.158;2023-02-24T05:43:32;2.25;;;0.43;;
65328;SDS011;51941;52.210;5.158;2023-02-24T05:46:00;6.18;;;0.80;;
65328;SDS011;51941;52.210;5.158;2023-02-24T05:48:28;2.63;;;0.70;;
65328;SDS011;51941;52.210;5.158;2023-02-24T05:50:59;4.70;;;0.73;;
65328;SDS011;51941;52.210;5.158;2023-02-24T05:53:27;3.10;;;1.27;;
65328;SDS011;51941;52.210;5.158;2023-02-24T05:55:53;3.97;;;0.43;;
65328;SDS011;51941;52.210;5.158;2023-02-24T05:58:22;2.00;;;0.57;;
65328;SDS011;51941;52.210;5.158;2023-02-24T06:00:51;4.07;;;0.80;;
65328;SDS011;51941;52.210;5.158;2023-02-24T06:03:17;4.43;;;0.70;;
65328;SDS011;51941;52.210;5.158;2023-02-24T06:05:55;3.25;;;0.65;;
65328;SDS011;51941;52.210;5.158;2023-02-24T06:08:29;4.43;;;1.00;;
65328;SDS011;51941;52.210;5.158;2023-02-24T06:11:06;2.42;;;0.40;;
65328;SDS011;51941;52.210;5.158;2023-02-24T06:13:36;9.10;;;0.95;;
65328;SDS011;51941;52.210;5.158;2023-02-24T06:16:03;7.63;;;1.50;;
65328;SDS011;51941;52.210;5.158;2023-02-24T06:18:31;5.25;;;0.90;;
65328;SDS011;51941;52.210;5.158;2023-02-24T06:21:00;9.13;;;1.20;;
65328;SDS011;51941;52.210;5.158;2023-02-24T06:23:27;3.58;;;0.88;;
65328;SDS011;51941;52.210;5.158;2023-02-24T06:25:54;3.03;;;0.82;;
65328;SDS011;51941;52.210;5.158;2023-02-24T06:28:22;5.55;;;1.00;;
65328;SDS011;51941;52.210;5.158;2023-02-24T06:30:50;6.50;;;1.05;;
65328;SDS011;51941;52.210;5.158;2023-02-24T06:33:17;2.63;;;0.80;;
65328;SDS011;51941;52.210;5.158;2023-02-24T06:35:46;3.57;;;1.20;;
65328;SDS011;51941;52.210;5.158;2023-02-24T06:38:13;2.28;;;0.57;;
65328;SDS011;51941;52.210;5.158;2023-02-24T06:40:40;2.20;;;0.80;;
65328;SDS011;51941;52.210;5.158;2023-02-24T06:43:07;4.10;;;0.90;;
65328;SDS011;51941;52.210;5.158;2023-02-24T06:45:35;3.40;;;0.95;;
65328;SDS011;51941;52.210;5.158;2023-02-24T06:48:03;6.07;;;1.23;;
65328;SDS011;51941;52.210;5.158;2023-02-24T06:52:58;5.97;;;1.30;;
65328;SDS011;51941;52.210;5.158;2023-02-24T06:55:26;2.65;;;1.15;;
65328;SDS011;51941;52.210;5.158;2023-02-24T06:57:54;3.03;;;0.70;;
65328;SDS011;51941;52.210;5.158;2023-02-24T07:00:23;6.28;;;1.20;;
65328;SDS011;51941;52.210;5.158;2023-02-24T07:03:06;3.88;;;1.00;;
65328;SDS011;51941;52.210;5.158;2023-02-24T07:05:41;7.38;;;1.52;;
65328;SDS011;51941;52.210;5.158;2023-02-24T07:08:14;7.72;;;1.27;;
65328;SDS011;51941;52.210;5.158;2023-02-24T07:10:50;5.20;;;1.67;;
65328;SDS011;51941;52.210;5.158;2023-02-24T07:13:18;6.15;;;1.50;;
65328;SDS011;51941;52.210;5.158;2023-02-24T07:15:44;6.30;;;1.63;;
65328;SDS011;51941;52.210;5.158;2023-02-24T07:18:15;5.70;;;1.40;;
65328;SDS011;51941;52.210;5.158;2023-02-24T07:20:43;5.50;;;1.48;;
65328;SDS011;51941;52.210;5.158;2023-02-24T07:23:11;5.93;;;1.42;;
65328;SDS011;51941;52.210;5.158;2023-02-24T07:25:39;6.20;;;1.27;;
65328;SDS011;51941;52.210;5.158;2023-02-24T07:28:07;6.43;;;1.38;;
65328;SDS011;51941;52.210;5.158;2023-02-24T07:30:35;4.55;;;1.20;;
65328;SDS011;51941;52.210;5.158;2023-02-24T07:33:03;8.00;;;1.20;;
65328;SDS011;51941;52.210;5.158;2023-02-24T07:35:32;9.18;;;1.33;;
65328;SDS011;51941;52.210;5.158;2023-02-24T07:38:00;6.68;;;1.30;;
65328;SDS011;51941;52.210;5.158;2023-02-24T07:40:29;3.78;;;1.02;;
65328;SDS011;51941;52.210;5.158;2023-02-24T07:42:57;6.60;;;1.15;;
65328;SDS011;51941;52.210;5.158;2023-02-24T07:45:25;5.38;;;1.80;;
65328;SDS011;51941;52.210;5.158;2023-02-24T07:47:52;6.78;;;1.00;;
65328;SDS011;51941;52.210;5.158;2023-02-24T07:50:19;6.78;;;1.05;;
65328;SDS011;51941;52.210;5.158;2023-02-24T07:52:47;11.50;;;1.63;;
65328;SDS011;51941;52.210;5.158;2023-02-24T07:55:14;4.38;;;1.60;;
65328;SDS011;51941;52.210;5.158;2023-02-24T07:57:41;2.72;;;1.30;;
65328;SDS011;51941;52.210;5.158;2023-02-24T08:00:13;6.88;;;1.48;;
65328;SDS011;51941;52.210;5.158;2023-02-24T08:02:44;9.10;;;1.27;;
65328;SDS011;51941;52.210;5.158;2023-02-24T08:05:13;6.35;;;1.30;;
65328;SDS011;51941;52.210;5.158;2023-02-24T08:07:40;5.68;;;1.25;;
65328;SDS011;51941;52.210;5.158;2023-02-24T08:10:09;5.57;;;1.40;;
65328;SDS011;51941;52.210;5.158;2023-02-24T08:12:48;5.75;;;1.65;;
65328;SDS011;51941;52.210;5.158;2023-02-24T08:15:19;8.27;;;1.98;;
65328;SDS011;51941;52.210;5.158;2023-02-24T08:17:51;7.60;;;1.88;;
65328;SDS011;51941;52.210;5.158;2023-02-24T08:20:23;9.45;;;1.63;;
65328;SDS011;51941;52.210;5.158;2023-02-24T08:22:51;7.15;;;1.30;;
65328;SDS011;51941;52.210;5.158;2023-02-24T08:25:21;14.65;;;1.95;;
65328;SDS011;51941;52.210;5.158;2023-02-24T08:27:50;7.60;;;1.70;;
65328;SDS011;51941;52.210;5.158;2023-02-24T08:30:21;4.63;;;1.20;;
65328;SDS011;51941;52.210;5.158;2023-02-24T08:32:49;4.35;;;1.10;;
65328;SDS011;51941;52.210;5.158;2023-02-24T08:35:22;7.55;;;1.40;;
65328;SDS011;51941;52.210;5.158;2023-02-24T08:37:57;11.80;;;1.55;;
65328;SDS011;51941;52.210;5.158;2023-02-24T08:40:31;9.70;;;1.35;;
65328;SDS011;51941;52.210;5.158;2023-02-24T08:43:16;10.02;;;1.83;;
65328;SDS011;51941;52.210;5.158;2023-02-24T08:45:58;5.03;;;1.60;;
65328;SDS011;51941;52.210;5.158;2023-02-24T08:48:28;12.00;;;1.50;;
65328;SDS011;51941;52.210;5.158;2023-02-24T08:51:04;10.90;;;2.05;;
65328;SDS011;51941;52.210;5.158;2023-02-24T08:53:33;10.75;;;2.08;;
65328;SDS011;51941;52.210;5.158;2023-02-24T08:56:06;8.50;;;1.60;;
65328;SDS011;51941;52.210;5.158;2023-02-24T08:58:38;9.75;;;2.05;;
65328;SDS011;51941;52.210;5.158;2023-02-24T09:01:12;14.13;;;2.60;;
65328;SDS011;51941;52.210;5.158;2023-02-24T09:03:44;7.35;;;1.48;;
65328;SDS011;51941;52.210;5.158;2023-02-24T09:06:13;10.87;;;2.17;;
65328;SDS011;51941;52.210;5.158;2023-02-24T09:08:42;10.68;;;1.90;;
65328;SDS011;51941;52.210;5.158;2023-02-24T09:11:12;11.82;;;2.03;;
65328;SDS011;51941;52.210;5.158;2023-02-24T09:13:41;20.40;;;2.10;;
65328;SDS011;51941;52.210;5.158;2023-02-24T09:16:17;8.75;;;1.73;;
65328;SDS011;51941;52.210;5.158;2023-02-24T09:18:45;8.70;;;1.80;;
65328;SDS011;51941;52.210;5.158;2023-02-24T09:21:32;5.93;;;1.50;;
65328;SDS011;51941;52.210;5.158;2023-02-24T09:24:24;11.13;;;1.60;;
65328;SDS011;51941;52.210;5.158;2023-02-24T09:26:53;8.48;;;1.65;;
65328;SDS011;51941;52.210;5.158;2023-02-24T09:29:23;15.05;;;1.90;;
65328;SDS011;51941;52.210;5.158;2023-02-24T09:31:59;11.60;;;2.40;;
65328;SDS011;51941;52.210;5.158;2023-02-24T09:34:30;14.95;;;2.35;;
65328;SDS011;51941;52.210;5.158;2023-02-24T09:36:58;9.32;;;1.90;;
65328;SDS011;51941;52.210;5.158;2023-02-24T09:39:31;7.90;;;1.70;;
65328;SDS011;51941;52.210;5.158;2023-02-24T09:42:23;12.63;;;1.90;;
65328;SDS011;51941;52.210;5.158;2023-02-24T09:45:12;11.30;;;2.13;;
65328;SDS011;51941;52.210;5.158;2023-02-24T09:47:56;12.70;;;2.35;;
65328;SDS011;51941;52.210;5.158;2023-02-24T09:50:34;13.43;;;1.92;;
65328;SDS011;51941;52.210;5.158;2023-02-24T09:53:12;10.88;;;1.73;;
65328;SDS011;51941;52.210;5.158;2023-02-24T09:55:44;13.88;;;2.00;;
65328;SDS011;51941;52.210;5.158;2023-02-24T09:58:37;13.18;;;2.75;;
65328;SDS011;51941;52.210;5.158;2023-02-24T10:04:12;8.98;;;2.05;;
65328;SDS011;51941;52.210;5.158;2023-02-24T10:07:03;9.48;;;2.17;;
65328;SDS011;51941;52.210;5.158;2023-02-24T10:09:34;12.52;;;2.83;;
65328;SDS011;51941;52.210;5.158;2023-02-24T10:12:08;9.52;;;3.30;;
65328;SDS011;51941;52.210;5.158;2023-02-24T10:14:45;12.07;;;3.47;;
65328;SDS011;51941;52.210;5.158;2023-02-24T10:17:18;9.90;;;3.05;;
65328;SDS011;51941;52.210;5.158;2023-02-24T10:19:49;12.30;;;3.40;;
65328;SDS011;51941;52.210;5.158;2023-02-24T10:22:26;8.20;;;2.72;;
65328;SDS011;51941;52.210;5.158;2023-02-24T10:28:13;11.18;;;5.43;;
65328;SDS011;51941;52.210;5.158;2023-02-24T10:30:51;8.40;;;3.28;;
65328;SDS011;51941;52.210;5.158;2023-02-24T10:33:35;8.80;;;3.78;;
65328;SDS011;51941;52.210;5.158;2023-02-24T10:36:07;14.02;;;4.05;;
65328;SDS011;51941;52.210;5.158;2023-02-24T10:38:36;7.43;;;3.05;;
65328;SDS011;51941;52.210;5.158;2023-02-24T10:41:09;7.28;;;3.20;;
65328;SDS011;51941;52.210;5.158;2023-02-24T10:43:36;7.65;;;3.15;;
65328;SDS011;51941;52.210;5.158;2023-02-24T10:46:20;9.20;;;3.85;;
65328;SDS011;51941;52.210;5.158;2023-02-24T10:48:51;7.18;;;3.13;;
65328;SDS011;51941;52.210;5.158;2023-02-24T10:51:24;8.68;;;5.50;;
65328;SDS011;51941;52.210;5.158;2023-02-24T10:54:03;9.63;;;5.10;;
65328;SDS011;51941;52.210;5.158;2023-02-24T10:56:49;6.78;;;4.47;;
65328;SDS011;51941;52.210;5.158;2023-02-24T10:59:43;7.53;;;4.00;;
65328;SDS011;51941;52.210;5.158;2023-02-24T11:02:52;8.05;;;4.57;;
65328;SDS011;51941;52.210;5.158;2023-02-24T11:05:34;9.85;;;5.32;;
65328;SDS011;51941;52.210;5.158;2023-02-24T11:08:20;11.50;;;6.13;;
65328;SDS011;51941;52.210;5.158;2023-02-24T11:11:08;13.18;;;7.10;;
65328;SDS011;51941;52.210;5.158;2023-02-24T11:13:47;12.00;;;6.45;;
65328;SDS011;51941;52.210;5.158;2023-02-24T11:16:29;9.50;;;5.40;;
65328;SDS011;51941;52.210;5.158;2023-02-24T11:19:27;10.80;;;6.70;;
65328;SDS011;51941;52.210;5.158;2023-02-24T11:21:55;12.02;;;6.10;;
65328;SDS011;51941;52.210;5.158;2023-02-24T11:24:23;12.20;;;8.20;;
65328;SDS011;51941;52.210;5.158;2023-02-24T11:26:50;11.65;;;6.90;;
65328;SDS011;51941;52.210;5.158;2023-02-24T11:29:25;10.95;;;5.40;;
65328;SDS011;51941;52.210;5.158;2023-02-24T11:32:07;9.38;;;5.50;;
65328;SDS011;51941;52.210;5.158;2023-02-24T11:34:46;9.77;;;5.38;;
65328;SDS011;51941;52.210;5.158;2023-02-24T11:37:25;12.93;;;5.88;;
65328;SDS011;51941;52.210;5.158;2023-02-24T11:45:03;13.40;;;6.80;;
65328;SDS011;51941;52.210;5.158;2023-02-24T11:47:39;9.23;;;4.95;;
65328;SDS011;51941;52.210;5.158;2023-02-24T11:53:14;10.07;;;3.80;;
65328;SDS011;51941;52.210;5.158;2023-02-24T11:55:50;13.50;;;4.28;;
65328;SDS011;51941;52.210;5.158;2023-02-24T11:58:23;10.23;;;3.70;;
65328;SDS011;51941;52.210;5.158;2023-02-24T12:00:56;14.10;;;3.70;;
65328;SDS011;51941;52.210;5.158;2023-02-24T12:03:30;16.13;;;3.50;;
65328;SDS011;51941;52.210;5.158;2023-02-24T12:06:04;22.63;;;3.45;;
65328;SDS011;51941;52.210;5.158;2023-02-24T12:08:39;15.50;;;3.05;;
65328;SDS011;51941;52.210;5.158;2023-02-24T12:11:12;17.58;;;3.05;;
65328;SDS011;51941;52.210;5.158;2023-02-24T12:13:47;17.10;;;3.45;;
65328;SDS011;51941;52.210;5.158;2023-02-24T12:16:20;19.70;;;2.97;;
65328;SDS011;51941;52.210;5.158;2023-02-24T12:18:49;22.00;;;3.53;;
65328;SDS011;51941;52.210;5.158;2023-02-24T12:21:26;28.58;;;3.35;;
65328;SDS011;51941;52.210;5.158;2023-02-24T12:23:58;24.50;;;3.65;;
65328;SDS011;51941;52.210;5.158;2023-02-24T12:26:25;27.52;;;3.65;;
65328;SDS011;51941;52.210;5.158;2023-02-24T12:29:21;22.70;;;3.33;;
65328;SDS011;51941;52.210;5.158;2023-02-24T12:34:42;26.75;;;3.22;;
65328;SDS011;51941;52.210;5.158;2023-02-24T12:37:25;28.23;;;3.42;;
65328;SDS011;51941;52.210;5.158;2023-02-24T12:40:03;25.80;;;3.45;;
65328;SDS011;51941;52.210;5.158;2023-02-24T12:42:41;22.27;;;3.80;;
65328;SDS011;51941;52.210;5.158;2023-02-24T12:45:14;21.60;;;2.83;;
65328;SDS011;51941;52.210;5.158;2023-02-24T12:47:48;24.17;;;3.50;;
65328;SDS011;51941;52.210;5.158;2023-02-24T12:50:30;23.80;;;3.05;;
65328;SDS011;51941;52.210;5.158;2023-02-24T12:53:07;22.05;;;3.25;;
65328;SDS011;51941;52.210;5.158;2023-02-24T12:58:16;25.30;;;3.38;;
65328;SDS011;51941;52.210;5.158;2023-02-24T13:00:51;24.05;;;2.72;;
65328;SDS011;51941;52.210;5.158;2023-02-24T13:03:31;26.73;;;3.57;;
65328;SDS011;51941;52.210;5.158;2023-02-24T13:06:12;15.77;;;2.80;;
65328;SDS011;51941;52.210;5.158;2023-02-24T13:08:49;22.17;;;3.10;;
65328;SDS011;51941;52.210;5.158;2023-02-24T13:11:24;25.95;;;3.13;;
65328;SDS011;51941;52.210;5.158;2023-02-24T13:14:02;20.10;;;3.08;;
65328;SDS011;51941;52.210;5.158;2023-02-24T13:16:35;21.95;;;3.30;;
65328;SDS011;51941;52.210;5.158;2023-02-24T13:19:03;23.70;;;3.47;;
65328;SDS011;51941;52.210;5.158;2023-02-24T13:21:32;17.45;;;2.75;;
65328;SDS011;51941;52.210;5.158;2023-02-24T13:24:01;22.35;;;3.30;;
65328;SDS011;51941;52.210;5.158;2023-02-24T13:26:28;12.65;;;1.50;;
65328;SDS011;51941;52.210;5.158;2023-02-24T13:28:58;11.00;;;1.30;;
65328;SDS011;51941;52.210;5.158;2023-02-24T13:31:26;7.68;;;1.17;;
65328;SDS011;51941;52.210;5.158;2023-02-24T13:34:11;8.50;;;1.20;;
65328;SDS011;51941;52.210;5.158;2023-02-24T13:36:44;8.13;;;1.60;;
65328;SDS011;51941;52.210;5.158;2023-02-24T13:39:21;10.25;;;1.90;;
65328;SDS011;51941;52.210;5.158;2023-02-24T13:42:00;11.63;;;1.98;;
65328;SDS011;51941;52.210;5.158;2023-02-24T13:44:28;22.30;;;1.95;;
65328;SDS011;51941;52.210;5.158;2023-02-24T13:50:06;13.40;;;2.45;;
65328;SDS011;51941;52.210;5.158;2023-02-24T13:52:46;12.13;;;2.05;;
65328;SDS011;51941;52.210;5.158;2023-02-24T13:55:27;16.00;;;2.33;;
65328;SDS011;51941;52.210;5.158;2023-02-24T13:58:08;19.80;;;2.28;;
65328;SDS011;51941;52.210;5.158;2023-02-24T14:00:59;16.45;;;2.03;;
65328;SDS011;51941;52.210;5.158;2023-02-24T14:03:32;18.13;;;1.87;;
65328;SDS011;51941;52.210;5.158;2023-02-24T14:06:00;15.45;;;1.98;;
65328;SDS011;51941;52.210;5.158;2023-02-24T14:08:33;14.43;;;1.77;;
65328;SDS011;51941;52.210;5.158;2023-02-24T14:11:08;25.65;;;2.53;;
65328;SDS011;51941;52.210;5.158;2023-02-24T14:13:38;18.83;;;2.17;;
65328;SDS011;51941;52.210;5.158;2023-02-24T14:16:05;16.58;;;2.25;;
65328;SDS011;51941;52.210;5.158;2023-02-24T14:18:35;19.85;;;2.00;;
65328;SDS011;51941;52.210;5.158;2023-02-24T14:21:02;14.45;;;2.08;;
65328;SDS011;51941;52.210;5.158;2023-02-24T14:23:30;19.08;;;2.17;;
65328;SDS011;51941;52.210;5.158;2023-02-24T14:25:58;16.57;;;2.20;;
65328;SDS011;51941;52.210;5.158;2023-02-24T14:28:29;26.02;;;2.63;;
65328;SDS011;51941;52.210;5.158;2023-02-24T14:30:58;24.25;;;2.47;;
65328;SDS011;51941;52.210;5.158;2023-02-24T14:33:29;15.57;;;2.33;;
65328;SDS011;51941;52.210;5.158;2023-02-24T14:35:57;17.75;;;2.15;;
65328;SDS011;51941;52.210;5.158;2023-02-24T14:38:26;31.67;;;2.97;;
65328;SDS011;51941;52.210;5.158;2023-02-24T14:40:55;18.30;;;2.40;;
65328;SDS011;51941;52.210;5.158;2023-02-24T14:43:22;14.25;;;2.35;;
65328;SDS011;51941;52.210;5.158;2023-02-24T14:45:51;13.30;;;1.60;;
65328;SDS011;51941;52.210;5.158;2023-02-24T14:48:25;17.02;;;1.70;;
65328;SDS011;51941;52.210;5.158;2023-02-24T14:50:54;11.82;;;1.50;;
65328;SDS011;51941;52.210;5.158;2023-02-24T14:53:24;11.40;;;1.77;;
65328;SDS011;51941;52.210;5.158;2023-02-24T14:55:54;9.77;;;2.05;;
65328;SDS011;51941;52.210;5.158;2023-02-24T14:58:27;13.40;;;1.17;;
65328;SDS011;51941;52.210;5.158;2023-02-24T15:03:27;7.43;;;1.17;;
65328;SDS011;51941;52.210;5.158;2023-02-24T15:05:59;8.85;;;0.90;;
65328;SDS011;51941;52.210;5.158;2023-02-24T15:08:32;7.68;;;1.15;;
65328;SDS011;51941;52.210;5.158;2023-02-24T15:11:03;5.97;;;0.65;;
65328;SDS011;51941;52.210;5.158;2023-02-24T15:13:38;11.60;;;1.45;;
65328;SDS011;51941;52.210;5.158;2023-02-24T15:16:11;8.10;;;0.70;;
65328;SDS011;51941;52.210;5.158;2023-02-24T15:18:42;4.95;;;0.88;;
65328;SDS011;51941;52.210;5.158;2023-02-24T15:21:17;5.40;;;0.82;;
65328;SDS011;51941;52.210;5.158;2023-02-24T15:23:47;10.15;;;1.05;;
65328;SDS011;51941;52.210;5.158;2023-02-24T15:26:27;3.42;;;0.80;;
65328;SDS011;51941;52.210;5.158;2023-02-24T15:28:57;8.63;;;1.05;;
65328;SDS011;51941;52.210;5.158;2023-02-24T15:31:26;9.13;;;1.23;;
65328;SDS011;51941;52.210;5.158;2023-02-24T15:33:55;9.73;;;1.47;;
65328;SDS011;51941;52.210;5.158;2023-02-24T15:36:24;9.10;;;1.58;;
65328;SDS011;51941;52.210;5.158;2023-02-24T15:38:54;8.30;;;1.20;;
65328;SDS011;51941;52.210;5.158;2023-02-24T15:41:25;5.13;;;0.80;;
65328;SDS011;51941;52.210;5.158;2023-02-24T15:44:05;7.95;;;1.00;;
65328;SDS011;51941;52.210;5.158;2023-02-24T15:46:34;10.93;;;1.40;;
65328;SDS011;51941;52.210;5.158;2023-02-24T15:49:03;9.30;;;1.55;;
65328;SDS011;51941;52.210;5.158;2023-02-24T15:51:31;13.10;;;1.20;;
65328;SDS011;51941;52.210;5.158;2023-02-24T15:54:02;8.50;;;1.00;;
65328;SDS011;51941;52.210;5.158;2023-02-24T15:56:31;10.15;;;1.30;;
65328;SDS011;51941;52.210;5.158;2023-02-24T15:59:00;9.50;;;1.35;;
65328;SDS011;51941;52.210;5.158;2023-02-24T16:01:27;14.95;;;1.38;;
65328;SDS011;51941;52.210;5.158;2023-02-24T16:03:56;10.45;;;1.27;;